createdAt,value
2024-01-19T00:00:55.373Z,85.13
2024-01-19T00:02:18.392Z,85.11
2024-01-19T00:03:21.261Z,85.39
2024-01-19T00:04:24.521Z,85.41
2024-01-19T00:05:27.685Z,85.33
2024-01-19T00:06:30.750Z,85.46
2024-01-19T00:07:33.852Z,85.40
2024-01-19T00:08:36.822Z,85.03
2024-01-19T00:09:39.910Z,84.62
2024-01-19T00:10:42.730Z,84.79
2024-01-19T00:11:45.590Z,84.86
2024-01-19T00:12:48.708Z,85.14
2024-01-19T00:13:51.676Z,85.01
2024-01-19T00:14:54.724Z,84.88
2024-01-19T00:15:57.778Z,84.89
2024-01-19T00:17:00.870Z,84.98
2024-01-19T00:18:04.216Z,85.06
2024-01-19T00:19:07.127Z,85.16
2024-01-19T00:20:11.299Z,85.02
2024-01-19T00:21:14.272Z,84.77
2024-01-19T00:22:17.205Z,85.12
2024-01-19T00:23:20.127Z,85.13
2024-01-19T00:24:23.003Z,85.52
2024-01-19T00:25:26.062Z,85.54
2024-01-19T00:26:28.982Z,85.04
2024-01-19T00:27:31.906Z,84.82
2024-01-19T00:28:35.103Z,85.12
2024-01-19T00:29:38.015Z,85.10
2024-01-19T00:30:41.061Z,85.04
2024-01-19T00:31:46.933Z,85.08
2024-01-19T00:32:50.242Z,84.96
2024-01-19T00:33:53.461Z,84.96
2024-01-19T00:34:56.354Z,84.94
2024-01-19T00:35:59.363Z,84.83
2024-01-19T00:37:02.296Z,84.81
2024-01-19T00:38:05.553Z,84.95
2024-01-19T00:39:08.441Z,84.85
2024-01-19T00:40:13.109Z,84.52
2024-01-19T00:41:17.038Z,84.80
2024-01-19T00:42:19.946Z,85.28
2024-01-19T00:43:23.077Z,85.03
2024-01-19T00:44:26.170Z,84.59
2024-01-19T00:45:29.254Z,84.57
2024-01-19T00:46:32.143Z,84.49
2024-01-19T00:47:38.586Z,84.19
2024-01-19T00:48:41.645Z,84.74
2024-01-19T00:49:44.871Z,84.49
2024-01-19T00:50:47.871Z,84.53
2024-01-19T00:51:51.264Z,85.07
2024-01-19T00:52:54.109Z,84.87
2024-01-19T00:53:57.254Z,84.70
2024-01-19T00:55:00.258Z,84.80
2024-01-19T00:56:04.609Z,84.75
2024-01-19T00:57:07.535Z,84.64
2024-01-19T00:58:11.847Z,84.26
2024-01-19T00:59:15.148Z,84.64
2024-01-19T01:00:18.129Z,85.01
2024-01-19T01:01:20.982Z,85.08
2024-01-19T01:02:28.534Z,84.81
2024-01-19T01:03:31.491Z,84.94
2024-01-19T01:04:34.444Z,84.98
2024-01-19T01:05:37.702Z,85.02
2024-01-19T01:06:41.049Z,85.02
2024-01-19T01:07:44.073Z,85.07
2024-01-19T01:08:49.881Z,85.10
2024-01-19T01:09:52.901Z,84.99
2024-01-19T01:10:56.280Z,84.68
2024-01-19T01:11:59.295Z,84.68
2024-01-19T01:13:03.725Z,83.86
2024-01-19T01:14:07.453Z,83.59
2024-01-19T01:15:13.050Z,84.35
2024-01-19T01:16:17.617Z,83.88
2024-01-19T01:17:20.704Z,84.18
2024-01-19T01:18:23.899Z,84.26
2024-01-19T01:19:26.943Z,84.23
2024-01-19T01:20:30.055Z,84.51
2024-01-19T01:21:33.333Z,84.47
2024-01-19T01:22:36.154Z,84.22
2024-01-19T01:23:39.030Z,84.61
2024-01-19T01:24:41.955Z,84.57
2024-01-19T01:25:45.391Z,84.55
2024-01-19T01:26:48.306Z,84.48
2024-01-19T01:27:51.545Z,84.76
2024-01-19T01:28:54.426Z,84.95
2024-01-19T01:29:57.413Z,85.46
2024-01-19T01:31:00.746Z,85.39
2024-01-19T01:32:03.954Z,85.15
2024-01-19T01:33:07.590Z,85.47
2024-01-19T01:34:10.673Z,85.16
2024-01-19T01:35:13.757Z,84.84
2024-01-19T01:36:16.901Z,84.75
2024-01-19T01:37:19.721Z,84.77
2024-01-19T01:38:22.761Z,85.02
2024-01-19T01:39:25.623Z,84.99
2024-01-19T01:40:28.590Z,85.15
2024-01-19T01:41:31.486Z,85.16
2024-01-19T01:42:34.710Z,85.37
2024-01-19T01:43:37.807Z,85.31
2024-01-19T01:44:40.968Z,85.21
2024-01-19T01:45:44.505Z,85.54
2024-01-19T01:46:49.238Z,85.59
2024-01-19T01:47:52.920Z,84.92
2024-01-19T01:48:56.376Z,85.24
2024-01-19T01:50:00.373Z,84.85
2024-01-19T01:51:05.631Z,84.69
2024-01-19T01:52:09.412Z,84.68
2024-01-19T01:53:13.550Z,84.73
2024-01-19T01:54:16.716Z,84.79
2024-01-19T01:55:19.975Z,85.09
2024-01-19T01:56:23.618Z,84.99
2024-01-19T01:57:27.041Z,84.95
2024-01-19T01:58:30.064Z,85.05
2024-01-19T01:59:33.445Z,85.22
2024-01-19T02:00:38.298Z,85.05
2024-01-19T02:01:41.957Z,84.64
2024-01-19T02:02:47.668Z,85.15
2024-01-19T02:03:54.781Z,85.51
2024-01-19T02:04:57.695Z,85.73
2024-01-19T02:06:00.828Z,85.67
2024-01-19T02:07:04.617Z,85.33
2024-01-19T02:08:08.302Z,84.97
2024-01-19T02:09:11.643Z,84.90
2024-01-19T02:10:14.653Z,85.09
2024-01-19T02:11:17.770Z,84.88
2024-01-19T02:12:23.215Z,84.86
2024-01-19T02:13:26.268Z,85.09
2024-01-19T02:14:29.273Z,85.31
2024-01-19T02:15:33.553Z,85.33
2024-01-19T02:16:36.483Z,85.23
2024-01-19T02:17:39.516Z,85.20
2024-01-19T02:18:42.693Z,85.28
2024-01-19T02:19:45.784Z,85.53
2024-01-19T02:20:48.816Z,85.32
2024-01-19T02:21:52.643Z,85.17
2024-01-19T02:22:56.070Z,85.17
2024-01-19T02:24:05.726Z,85.06
2024-01-19T02:25:08.915Z,84.99
2024-01-19T02:26:11.889Z,85.08
2024-01-19T02:27:15.890Z,84.84
2024-01-19T02:28:19.590Z,84.81
2024-01-19T02:29:22.651Z,85.03
2024-01-19T02:32:15.670Z,85.77
2024-01-19T02:33:18.926Z,85.91
2024-01-19T02:34:23.717Z,85.62
2024-01-19T02:35:26.599Z,85.88
2024-01-19T02:36:29.561Z,85.90
2024-01-19T02:37:32.717Z,85.91
2024-01-19T02:38:35.668Z,85.69
2024-01-19T02:39:38.688Z,85.71
2024-01-19T02:40:42.421Z,85.87
2024-01-19T02:41:46.845Z,85.49
2024-01-19T02:42:50.078Z,85.62
2024-01-19T02:43:53.431Z,85.87
2024-01-19T02:44:57.005Z,85.78
2024-01-19T02:46:00.021Z,84.99
2024-01-19T02:47:03.988Z,85.05
2024-01-19T02:48:07.247Z,85.26
2024-01-19T02:49:10.309Z,84.97
2024-01-19T02:50:13.313Z,85.19
2024-01-19T02:51:16.494Z,85.39
2024-01-19T02:52:19.877Z,85.35
2024-01-19T02:53:23.396Z,85.05
2024-01-19T02:54:26.389Z,85.27
2024-01-19T02:55:29.506Z,85.38
2024-01-19T02:56:32.501Z,85.17
2024-01-19T02:57:35.503Z,85.23
2024-01-19T02:58:38.784Z,85.09
2024-01-19T02:59:41.761Z,85.00
2024-01-19T03:00:45.495Z,85.22
2024-01-19T03:01:48.632Z,85.64
2024-01-19T03:02:51.871Z,85.47
2024-01-19T03:03:55.069Z,85.39
2024-01-19T03:04:58.046Z,85.43
2024-01-19T03:06:01.010Z,85.50
2024-01-19T03:07:04.272Z,85.29
2024-01-19T03:08:07.747Z,85.16
2024-01-19T03:09:10.698Z,85.14
2024-01-19T03:10:13.577Z,85.06
2024-01-19T03:11:16.762Z,84.95
2024-01-19T03:12:19.615Z,84.96
2024-01-19T03:13:22.637Z,85.09
2024-01-19T03:14:25.758Z,84.98
2024-01-19T03:15:28.682Z,84.96
2024-01-19T03:16:31.561Z,85.20
2024-01-19T03:17:34.582Z,85.12
2024-01-19T03:18:37.883Z,84.91
2024-01-19T03:19:40.818Z,85.06
2024-01-19T03:20:43.680Z,85.01
2024-01-19T03:21:46.709Z,85.18
2024-01-19T03:22:49.594Z,85.21
2024-01-19T03:23:52.580Z,85.11
2024-01-19T03:24:55.740Z,84.97
2024-01-19T03:25:58.792Z,84.58
2024-01-19T03:27:01.947Z,84.84
2024-01-19T03:28:04.953Z,84.64
2024-01-19T03:29:08.059Z,84.74
2024-01-19T03:30:12.160Z,84.73
2024-01-19T03:31:15.158Z,85.21
2024-01-19T03:32:18.063Z,85.04
2024-01-19T03:33:21.210Z,85.07
2024-01-19T03:34:24.297Z,84.96
2024-01-19T03:35:27.280Z,85.02
2024-01-19T03:36:30.269Z,85.30
2024-01-19T03:37:33.081Z,85.20
2024-01-19T03:38:36.030Z,85.11
2024-01-19T03:39:39.075Z,85.43
2024-01-19T03:40:42.164Z,85.53
2024-01-19T03:41:45.082Z,85.39
2024-01-19T03:42:48.596Z,85.10
2024-01-19T03:43:51.406Z,85.06
2024-01-19T03:44:54.406Z,85.12
2024-01-19T03:45:57.669Z,84.84
2024-01-19T03:47:00.740Z,84.68
2024-01-19T03:48:04.449Z,84.72
2024-01-19T03:49:08.123Z,84.47
2024-01-19T03:50:11.323Z,84.42
2024-01-19T03:51:14.416Z,84.71
2024-01-19T03:52:17.492Z,84.98
2024-01-19T03:53:20.368Z,85.14
2024-01-19T03:54:23.353Z,85.05
2024-01-19T03:55:26.250Z,84.97
2024-01-19T03:56:29.253Z,85.11
2024-01-19T03:57:32.391Z,85.12
2024-01-19T03:58:35.344Z,84.87
2024-01-19T03:59:38.299Z,84.80
2024-01-19T04:00:41.187Z,84.75
2024-01-19T04:01:44.017Z,84.81
2024-01-19T04:02:47.126Z,84.54
2024-01-19T04:03:50.408Z,84.70
2024-01-19T04:04:53.441Z,84.72
2024-01-19T04:05:56.371Z,84.74
2024-01-19T04:06:59.610Z,84.72
2024-01-19T04:08:03.992Z,84.70
2024-01-19T04:09:07.660Z,84.88
2024-01-19T04:10:10.733Z,85.12
2024-01-19T04:11:13.709Z,85.20
2024-01-19T04:12:18.720Z,85.09
2024-01-19T04:13:21.884Z,84.89
2024-01-19T04:14:24.808Z,85.00
2024-01-19T04:15:28.152Z,84.92
2024-01-19T04:16:31.035Z,84.98
2024-01-19T04:17:34.124Z,85.40
2024-01-19T04:18:37.285Z,85.29
2024-01-19T04:19:41.572Z,85.68
2024-01-19T04:20:44.644Z,85.41
2024-01-19T04:21:47.669Z,85.22
2024-01-19T04:22:50.489Z,85.28
2024-01-19T04:23:53.859Z,85.19
2024-01-19T04:24:56.883Z,84.97
2024-01-19T04:25:59.763Z,84.65
2024-01-19T04:27:02.744Z,84.77
2024-01-19T04:28:06.019Z,84.88
2024-01-19T04:29:11.191Z,85.16
2024-01-19T04:30:14.427Z,84.99
2024-01-19T04:31:17.508Z,85.09
2024-01-19T04:32:21.473Z,84.95
2024-01-19T04:33:24.639Z,84.69
2024-01-19T04:34:27.767Z,84.68
2024-01-19T04:35:30.735Z,84.74
2024-01-19T04:36:33.689Z,84.78
2024-01-19T04:37:36.628Z,84.76
2024-01-19T04:38:39.684Z,84.89
2024-01-19T04:39:43.092Z,84.62
2024-01-19T04:40:47.765Z,85.00
2024-01-19T04:41:51.827Z,84.86
2024-01-19T04:42:54.731Z,85.02
2024-01-19T04:43:57.999Z,85.00
2024-01-19T04:45:01.029Z,85.17
2024-01-19T04:46:04.238Z,84.88
2024-01-19T04:47:07.808Z,85.35
2024-01-19T04:48:10.868Z,85.10
2024-01-19T04:49:14.293Z,84.92
2024-01-19T04:50:17.240Z,85.37
2024-01-19T04:51:20.241Z,85.68
2024-01-19T04:52:23.406Z,85.37
2024-01-19T04:53:26.365Z,85.47
2024-01-19T04:54:29.407Z,85.71
2024-01-19T04:55:32.346Z,85.50
2024-01-19T04:56:35.563Z,85.03
2024-01-19T04:57:38.514Z,84.69
2024-01-19T04:58:41.487Z,84.75
2024-01-19T04:59:44.487Z,85.13
2024-01-19T05:00:49.061Z,84.73
2024-01-19T05:01:52.069Z,84.61
2024-01-19T05:02:55.188Z,84.66
2024-01-19T05:03:58.269Z,84.26
2024-01-19T05:05:01.309Z,84.78
2024-01-19T05:06:04.517Z,84.34
2024-01-19T05:07:07.585Z,84.22
2024-01-19T05:08:10.629Z,84.32
2024-01-19T05:09:13.697Z,84.17
2024-01-19T05:10:16.919Z,84.18
2024-01-19T05:11:19.854Z,84.07
2024-01-19T05:12:23.158Z,84.36
2024-01-19T05:13:26.019Z,84.88
2024-01-19T05:14:29.041Z,84.41
2024-01-19T05:15:32.115Z,83.77
2024-01-19T05:16:35.083Z,83.40
2024-01-19T05:17:37.958Z,83.46
2024-01-19T05:18:42.160Z,83.35
2024-01-19T05:19:45.923Z,83.46
2024-01-19T05:20:48.972Z,83.66
2024-01-19T05:21:51.893Z,83.49
2024-01-19T05:22:55.476Z,83.12
2024-01-19T05:23:58.518Z,83.39
2024-01-19T05:25:03.663Z,83.29
2024-01-19T05:26:06.681Z,83.65
2024-01-19T05:27:10.255Z,84.11
2024-01-19T05:28:13.150Z,83.62
2024-01-19T05:29:16.186Z,83.23
2024-01-19T05:30:19.244Z,83.62
2024-01-19T05:31:22.401Z,83.49
2024-01-19T05:32:25.797Z,83.56
2024-01-19T05:33:29.029Z,83.46
2024-01-19T05:34:32.157Z,82.83
2024-01-19T05:35:35.474Z,83.26
2024-01-19T05:36:38.493Z,82.95
2024-01-19T05:37:41.500Z,83.27
2024-01-19T05:38:44.445Z,84.25
2024-01-19T05:39:47.355Z,84.18
2024-01-19T05:40:50.298Z,83.78
2024-01-19T05:41:53.630Z,83.81
2024-01-19T05:42:56.543Z,84.62
2024-01-19T05:43:59.626Z,84.72
2024-01-19T05:45:02.768Z,84.65
2024-01-19T05:46:05.781Z,84.40
2024-01-19T05:47:09.268Z,84.04
2024-01-19T05:48:12.260Z,83.44
2024-01-19T05:49:15.988Z,83.70
2024-01-19T05:50:19.031Z,84.01
2024-01-19T05:51:22.023Z,83.72
2024-01-19T05:52:25.683Z,83.85
2024-01-19T05:53:28.769Z,83.70
2024-01-19T05:54:31.868Z,83.82
2024-01-19T05:55:34.788Z,83.80
2024-01-19T05:56:37.967Z,83.98
2024-01-19T05:57:41.286Z,84.00
2024-01-19T05:58:45.105Z,84.03
2024-01-19T05:59:48.964Z,83.77
2024-01-19T06:00:52.656Z,83.57
2024-01-19T06:01:56.254Z,83.49
2024-01-19T06:02:59.662Z,83.65
2024-01-19T06:04:03.615Z,83.16
2024-01-19T06:05:07.058Z,83.68
2024-01-19T06:06:10.300Z,83.58
2024-01-19T06:07:13.841Z,83.66
2024-01-19T06:08:17.006Z,83.69
2024-01-19T06:09:20.000Z,83.97
2024-01-19T06:10:22.873Z,83.87
2024-01-19T06:11:25.854Z,84.36
2024-01-19T06:12:29.114Z,84.28
2024-01-19T06:13:33.020Z,84.08
2024-01-19T06:14:36.140Z,83.96
2024-01-19T06:15:39.165Z,83.61
2024-01-19T06:16:42.015Z,83.52
2024-01-19T06:17:45.072Z,83.51
2024-01-19T06:18:49.036Z,83.55
2024-01-19T06:19:52.004Z,82.99
2024-01-19T06:20:56.427Z,83.01
2024-01-19T06:21:59.584Z,83.17
2024-01-19T06:23:02.537Z,82.72
2024-01-19T06:24:05.960Z,83.16
2024-01-19T06:25:09.126Z,82.88
2024-01-19T06:26:12.673Z,82.61
2024-01-19T06:27:15.683Z,82.83
2024-01-19T06:28:18.934Z,82.81
2024-01-19T06:29:22.354Z,83.66
2024-01-19T06:30:25.683Z,83.59
2024-01-19T06:31:28.740Z,83.21
2024-01-19T06:32:32.086Z,82.91
2024-01-19T06:33:35.273Z,82.44
2024-01-19T06:34:41.259Z,82.49
2024-01-19T06:35:44.319Z,82.75
2024-01-19T06:36:47.901Z,82.66
2024-01-19T06:37:51.169Z,82.80
2024-01-19T06:38:55.503Z,82.58
2024-01-19T06:39:58.808Z,82.72
2024-01-19T06:41:01.852Z,83.14
2024-01-19T06:42:05.258Z,83.18
2024-01-19T06:43:08.367Z,82.74
2024-01-19T06:44:12.580Z,82.78
2024-01-19T06:45:17.604Z,82.55
2024-01-19T06:46:20.733Z,82.69
2024-01-19T06:47:24.063Z,82.68
2024-01-19T06:48:27.400Z,83.03
2024-01-19T06:49:30.526Z,83.05
2024-01-19T06:50:33.633Z,82.67
2024-01-19T06:51:36.588Z,81.72
2024-01-19T06:52:40.434Z,81.98
2024-01-19T06:53:43.452Z,81.73
2024-01-19T06:54:46.590Z,81.93
2024-01-19T06:55:50.323Z,82.37
2024-01-19T06:56:53.220Z,81.98
2024-01-19T06:57:56.138Z,81.45
2024-01-19T06:58:59.077Z,82.40
2024-01-19T07:00:02.248Z,82.39
2024-01-19T07:01:06.174Z,82.22
2024-01-19T07:02:09.401Z,82.35
2024-01-19T07:03:12.495Z,81.74
2024-01-19T07:04:15.710Z,81.02
2024-01-19T07:05:19.390Z,80.66
2024-01-19T07:06:22.612Z,80.84
2024-01-19T07:07:25.628Z,80.77
2024-01-19T07:08:28.588Z,80.88
2024-01-19T07:09:31.748Z,81.05
2024-01-19T07:10:34.656Z,81.12
2024-01-19T07:11:38.079Z,80.57
2024-01-19T07:12:41.251Z,80.46
2024-01-19T07:13:44.235Z,80.62
2024-01-19T07:14:47.351Z,80.69
2024-01-19T07:15:50.232Z,80.84
2024-01-19T07:16:53.917Z,80.92
2024-01-19T07:17:57.031Z,80.57
2024-01-19T07:19:00.219Z,80.01
2024-01-19T07:20:06.520Z,79.73
2024-01-19T07:21:09.557Z,79.80
2024-01-19T07:22:12.903Z,79.85
2024-01-19T07:23:15.947Z,80.17
2024-01-19T07:24:21.106Z,79.98
2024-01-19T07:25:24.196Z,79.82
2024-01-19T07:26:27.232Z,79.88
2024-01-19T07:27:30.609Z,79.83
2024-01-19T07:28:33.822Z,79.23
2024-01-19T07:29:36.921Z,78.85
2024-01-19T07:30:40.381Z,79.59
2024-01-19T07:31:45.494Z,80.17
2024-01-19T07:33:00.017Z,79.48
2024-01-19T07:34:08.681Z,79.88
2024-01-19T07:35:12.066Z,79.81
2024-01-19T07:36:17.100Z,79.89
2024-01-19T07:37:20.232Z,81.08
2024-01-19T07:38:23.814Z,80.77
2024-01-19T07:39:27.717Z,81.04
2024-01-19T07:40:30.808Z,80.87
2024-01-19T07:41:33.981Z,80.17
2024-01-19T07:42:37.043Z,79.98
2024-01-19T07:43:40.149Z,80.23
2024-01-19T07:44:43.102Z,80.44
2024-01-19T07:45:46.172Z,80.54
2024-01-19T07:46:49.701Z,79.79
2024-01-19T07:47:53.205Z,80.15
2024-01-19T07:48:56.674Z,80.16
2024-01-19T07:49:59.856Z,78.98
2024-01-19T07:51:04.224Z,79.28
2024-01-19T07:52:07.282Z,79.50
2024-01-19T07:53:10.321Z,79.30
2024-01-19T07:54:13.945Z,79.15
2024-01-19T07:55:17.387Z,78.87
2024-01-19T07:56:20.428Z,78.61
2024-01-19T07:57:23.679Z,78.62
2024-01-19T07:58:27.143Z,78.72
2024-01-19T07:59:30.282Z,79.51
2024-01-19T08:00:41.416Z,79.12
2024-01-19T08:01:44.464Z,78.77
2024-01-19T08:02:47.587Z,78.93
2024-01-19T08:03:50.971Z,79.43
2024-01-19T08:04:54.542Z,78.72
2024-01-19T08:05:57.608Z,78.62
2024-01-19T08:07:00.845Z,78.23
2024-01-19T08:08:04.638Z,77.80
2024-01-19T08:09:12.441Z,77.49
2024-01-19T08:10:15.654Z,78.33
2024-01-19T08:11:19.585Z,78.38
2024-01-19T08:12:22.487Z,77.84
2024-01-19T08:13:25.563Z,79.05
2024-01-19T08:14:28.926Z,78.54
2024-01-19T08:15:32.226Z,78.44
2024-01-19T08:16:35.243Z,78.32
2024-01-19T08:17:38.651Z,79.27
2024-01-19T08:18:41.793Z,78.23
2024-01-19T08:19:45.042Z,78.85
2024-01-19T08:20:48.731Z,78.41
2024-01-19T08:21:52.021Z,78.28
2024-01-19T08:22:55.568Z,77.98
2024-01-19T08:23:58.842Z,77.25
2024-01-19T08:25:02.193Z,77.33
2024-01-19T08:26:09.658Z,77.30
2024-01-19T08:27:12.837Z,77.78
2024-01-19T08:28:15.933Z,78.00
2024-01-19T08:29:19.134Z,78.31
2024-01-19T08:30:22.773Z,78.30
2024-01-19T08:31:26.396Z,78.53
2024-01-19T08:32:29.718Z,77.80
2024-01-19T08:33:33.036Z,77.75
2024-01-19T08:34:36.416Z,78.28
2024-01-19T08:35:40.326Z,78.67
2024-01-19T08:36:44.137Z,78.27
2024-01-19T08:37:47.233Z,78.28
2024-01-19T08:38:50.396Z,78.35
2024-01-19T08:39:53.823Z,77.80
2024-01-19T08:40:57.345Z,77.31
2024-01-19T08:42:01.270Z,78.03
2024-01-19T08:43:04.525Z,77.33
2024-01-19T08:44:07.683Z,76.97
2024-01-19T08:45:11.011Z,77.00
2024-01-19T08:46:14.292Z,77.49
2024-01-19T08:47:19.596Z,77.44
2024-01-19T08:48:22.786Z,77.77
2024-01-19T08:49:26.220Z,79.06
2024-01-19T08:50:29.755Z,78.79
2024-01-19T08:51:32.699Z,77.95
2024-01-19T08:52:36.602Z,78.19
2024-01-19T08:53:39.570Z,77.92
2024-01-19T08:54:42.534Z,77.96
2024-01-19T08:55:45.889Z,77.79
2024-01-19T08:56:55.382Z,77.96
2024-01-19T08:58:01.094Z,79.20
2024-01-19T08:59:03.948Z,78.15
2024-01-19T09:00:09.116Z,78.36
2024-01-19T09:01:21.215Z,77.96
2024-01-19T09:02:26.285Z,77.58
2024-01-19T09:03:29.826Z,77.25
2024-01-19T09:04:36.568Z,79.31
2024-01-19T09:05:40.039Z,78.34
2024-01-19T09:06:45.622Z,77.75
2024-01-19T09:07:49.407Z,77.26
2024-01-19T09:08:52.728Z,77.29
2024-01-19T09:09:55.695Z,76.93
2024-01-19T09:10:58.757Z,77.81
2024-01-19T09:12:01.865Z,77.55
2024-01-19T09:13:06.384Z,77.33
2024-01-19T09:14:13.297Z,77.81
2024-01-19T09:15:17.674Z,76.81
2024-01-19T09:16:21.018Z,77.35
2024-01-19T09:17:23.965Z,77.65
2024-01-19T09:18:27.109Z,77.92
2024-01-19T09:19:30.437Z,77.46
2024-01-19T09:20:33.633Z,77.05
2024-01-19T09:21:37.042Z,77.39
2024-01-19T09:22:39.953Z,77.55
2024-01-19T09:23:42.904Z,78.16
2024-01-19T09:24:47.362Z,77.59
2024-01-19T09:25:50.519Z,77.47
2024-01-19T09:26:53.601Z,77.82
2024-01-19T09:27:57.280Z,77.78
2024-01-19T09:29:00.208Z,77.52
2024-01-19T09:30:04.412Z,78.03
2024-01-19T09:31:07.452Z,77.28
2024-01-19T09:32:10.358Z,77.30
2024-01-19T09:33:15.856Z,77.41
2024-01-19T09:34:19.395Z,77.44
2024-01-19T09:35:22.702Z,77.25
2024-01-19T09:36:25.740Z,77.45
2024-01-19T09:37:28.756Z,76.91
2024-01-19T09:38:36.349Z,76.84
2024-01-19T09:39:39.586Z,77.26
2024-01-19T09:40:45.422Z,77.33
2024-01-19T09:41:51.629Z,77.40
2024-01-19T09:42:58.438Z,78.23
2024-01-19T09:44:07.607Z,78.47
2024-01-19T09:45:19.403Z,79.26
2024-01-19T09:46:30.452Z,77.92
2024-01-19T09:47:48.833Z,76.85
2024-01-19T09:49:20.956Z,78.78
2024-01-19T09:50:27.636Z,79.62
2024-01-19T09:51:49.063Z,78.70
2024-01-19T09:53:01.686Z,78.32
2024-01-19T09:54:08.808Z,78.07
2024-01-19T09:55:12.639Z,79.27
2024-01-19T09:56:15.929Z,78.31
2024-01-19T09:57:19.451Z,77.42
2024-01-19T09:58:23.786Z,77.98
2024-01-19T09:59:33.781Z,79.79
2024-01-19T10:00:36.883Z,79.16
2024-01-19T10:01:39.910Z,78.90
2024-01-19T10:02:46.961Z,78.10
2024-01-19T10:03:55.043Z,77.23
2024-01-19T10:05:01.270Z,77.20
2024-01-19T10:06:04.809Z,78.33
2024-01-19T10:07:08.566Z,77.93
2024-01-19T10:08:14.919Z,77.45
2024-01-19T10:09:20.278Z,77.64
2024-01-19T10:10:23.318Z,78.27
2024-01-19T10:11:27.769Z,78.15
2024-01-19T10:12:34.899Z,78.02
2024-01-19T10:13:39.982Z,78.35
2024-01-19T10:14:44.353Z,79.33
2024-01-19T10:15:47.515Z,79.22
2024-01-19T10:16:52.111Z,80.08
2024-01-19T10:17:56.396Z,79.78
2024-01-19T10:19:02.519Z,79.46
2024-01-19T10:20:07.557Z,79.06
2024-01-19T10:21:14.508Z,79.22
2024-01-19T10:22:30.338Z,79.69
2024-01-19T10:23:33.272Z,79.63
2024-01-19T10:24:36.271Z,79.59
2024-01-19T10:25:39.198Z,80.02
2024-01-19T10:26:43.671Z,79.82
2024-01-19T10:27:50.074Z,79.26
2024-01-19T10:28:53.184Z,79.96
2024-01-19T10:30:08.083Z,80.08
2024-01-19T10:31:16.894Z,80.24
2024-01-19T10:32:22.558Z,80.89
2024-01-19T10:33:25.722Z,80.83
2024-01-19T10:34:28.832Z,81.31
2024-01-19T10:35:32.587Z,81.07
2024-01-19T10:36:40.257Z,82.05
2024-01-19T10:37:43.372Z,80.95
2024-01-19T10:38:46.482Z,80.80
2024-01-19T10:39:49.511Z,81.01
2024-01-19T10:40:52.481Z,81.28
2024-01-19T10:42:08.700Z,81.62
2024-01-19T10:43:23.970Z,82.23
2024-01-19T10:44:26.934Z,81.39
2024-01-19T10:45:32.643Z,81.06
2024-01-19T10:46:35.606Z,80.66
2024-01-19T10:47:38.806Z,80.61
2024-01-19T10:48:42.235Z,81.01
2024-01-19T10:49:45.281Z,81.76
2024-01-19T10:50:48.303Z,81.94
2024-01-19T10:51:51.467Z,81.82
2024-01-19T10:52:56.259Z,81.76
2024-01-19T10:54:03.920Z,81.67
2024-01-19T10:55:07.409Z,81.51
2024-01-19T10:56:10.508Z,82.20
2024-01-19T10:57:15.945Z,81.78
2024-01-19T10:58:18.941Z,81.45
2024-01-19T10:59:21.943Z,81.40
2024-01-19T11:00:28.917Z,81.17
2024-01-19T11:01:31.974Z,80.70
2024-01-19T11:02:35.351Z,80.79
2024-01-19T11:03:38.780Z,81.29
2024-01-19T11:04:44.380Z,81.32
2024-01-19T11:05:48.538Z,80.72
2024-01-19T11:06:52.094Z,81.12
2024-01-19T11:07:59.805Z,80.87
2024-01-19T11:09:03.269Z,80.80
2024-01-19T11:10:06.874Z,81.33
2024-01-19T11:11:10.998Z,81.04
2024-01-19T11:12:17.920Z,80.92
2024-01-19T11:13:22.846Z,80.75
2024-01-19T11:14:28.725Z,80.31
2024-01-19T11:15:41.236Z,80.48
2024-01-19T11:16:48.400Z,79.88
2024-01-19T11:17:52.581Z,79.86
2024-01-19T11:18:57.327Z,80.52
2024-01-19T11:20:00.539Z,79.99
2024-01-19T11:21:03.465Z,80.15
2024-01-19T11:22:07.163Z,79.59
2024-01-19T11:23:10.448Z,79.83
2024-01-19T11:24:15.925Z,79.83
2024-01-19T11:25:28.641Z,79.14
2024-01-19T11:26:39.189Z,78.49
2024-01-19T11:27:54.412Z,79.26
2024-01-19T11:29:34.948Z,79.19
2024-01-19T11:30:40.763Z,76.82
2024-01-19T11:31:45.807Z,78.81
2024-01-19T11:32:48.747Z,78.32
2024-01-19T11:33:54.646Z,77.98
2024-01-19T11:34:57.680Z,79.22
2024-01-19T11:36:01.061Z,79.25
2024-01-19T11:37:04.938Z,79.88
2024-01-19T11:38:08.173Z,79.37
2024-01-19T11:39:14.913Z,79.82
2024-01-19T11:40:30.359Z,79.40
2024-01-19T11:41:33.898Z,80.29
2024-01-19T11:42:40.905Z,79.91
2024-01-19T11:43:44.786Z,79.30
2024-01-19T11:44:47.980Z,79.51
2024-01-19T11:45:51.227Z,80.05
2024-01-19T11:46:54.093Z,79.48
2024-01-19T11:47:57.268Z,79.80
2024-01-19T11:49:00.740Z,79.63
2024-01-19T11:50:06.017Z,80.04
2024-01-19T11:51:10.063Z,79.95
2024-01-19T11:52:19.152Z,79.55
2024-01-19T11:53:22.419Z,80.44
2024-01-19T11:54:33.494Z,81.65
2024-01-19T11:55:38.623Z,80.49
2024-01-19T11:56:41.839Z,80.24
2024-01-19T11:57:44.880Z,79.97
2024-01-19T11:58:47.792Z,79.05
2024-01-19T11:59:50.952Z,79.75
2024-01-19T12:00:56.582Z,79.90
2024-01-19T12:01:59.862Z,80.30
2024-01-19T12:03:03.896Z,80.14
2024-01-19T12:04:07.320Z,80.10
2024-01-19T12:05:13.559Z,79.99
2024-01-19T12:06:17.275Z,80.59
2024-01-19T12:07:23.605Z,80.40
2024-01-19T12:08:27.121Z,81.08
2024-01-19T12:09:30.134Z,81.06
2024-01-19T12:10:33.120Z,80.79
2024-01-19T12:11:36.228Z,80.91
2024-01-19T12:12:41.257Z,80.80
2024-01-19T12:13:55.011Z,81.75
2024-01-19T12:16:12.539Z,81.99
2024-01-19T12:17:15.803Z,81.77
2024-01-19T12:18:18.805Z,81.43
2024-01-19T12:19:23.384Z,80.74
2024-01-19T12:20:26.446Z,79.93
2024-01-19T12:21:29.676Z,79.79
2024-01-19T12:22:32.763Z,80.03
2024-01-19T12:23:37.365Z,80.36
2024-01-19T12:24:40.358Z,81.42
2024-01-19T12:25:43.347Z,81.80
2024-01-19T12:26:53.355Z,81.65
2024-01-19T12:28:04.722Z,82.06
2024-01-19T12:29:07.931Z,81.72
2024-01-19T12:30:23.253Z,82.86
2024-01-19T12:31:29.653Z,82.86
2024-01-19T12:32:32.766Z,82.40
2024-01-19T12:33:36.655Z,81.56
2024-01-19T12:34:40.470Z,82.26
2024-01-19T12:35:44.284Z,83.07
2024-01-19T12:36:47.431Z,82.14
2024-01-19T12:37:50.628Z,81.70
2024-01-19T12:39:04.971Z,81.67
2024-01-19T12:40:19.798Z,81.81
2024-01-19T12:41:22.828Z,84.34
2024-01-19T12:42:25.826Z,83.14
2024-01-19T12:43:30.506Z,83.61
2024-01-19T12:44:33.845Z,83.70
2024-01-19T12:45:37.876Z,84.30
2024-01-19T12:46:48.258Z,83.66
2024-01-19T12:47:51.486Z,84.55
2024-01-19T12:49:04.352Z,83.58
2024-01-19T12:50:11.255Z,82.20
2024-01-19T12:51:20.180Z,83.33
2024-01-19T12:52:23.232Z,84.56
2024-01-19T12:53:26.220Z,81.34
2024-01-19T12:54:55.468Z,83.39
2024-01-19T12:55:58.556Z,84.76
2024-01-19T12:57:02.575Z,83.50
2024-01-19T12:58:05.789Z,83.32
2024-01-19T12:59:10.458Z,81.03
2024-01-19T13:00:17.365Z,81.54
2024-01-19T13:01:21.862Z,82.29
2024-01-19T13:02:25.154Z,83.55
2024-01-19T13:03:28.252Z,82.84
2024-01-19T13:04:34.728Z,81.87
2024-01-19T13:05:37.816Z,80.81
2024-01-19T13:06:45.486Z,80.08
2024-01-19T13:07:49.167Z,77.40
2024-01-19T13:08:53.816Z,78.69
2024-01-19T13:10:04.737Z,79.47
2024-01-19T13:11:09.580Z,79.97
2024-01-19T13:12:13.312Z,79.07
2024-01-19T13:13:22.487Z,79.02
2024-01-19T13:14:26.020Z,78.58
2024-01-19T13:15:32.441Z,78.88
2024-01-19T13:16:53.043Z,79.54
2024-01-19T13:18:06.265Z,79.56
2024-01-19T13:19:09.284Z,82.77
2024-01-19T13:20:26.236Z,80.82
2024-01-19T13:21:30.331Z,80.49
2024-01-19T13:22:33.482Z,78.60
2024-01-19T13:23:36.469Z,78.87
2024-01-19T13:24:39.780Z,78.55
2024-01-19T13:25:55.975Z,78.03
2024-01-19T13:27:03.481Z,78.45
2024-01-19T13:28:07.130Z,78.35
2024-01-19T13:29:10.319Z,75.86
2024-01-19T13:30:14.179Z,75.03
2024-01-19T13:31:17.413Z,74.82
2024-01-19T13:32:20.383Z,75.67
2024-01-19T13:33:25.092Z,76.15
2024-01-19T13:34:29.890Z,77.00
2024-01-19T13:35:33.477Z,77.63
2024-01-19T13:36:36.591Z,77.79
2024-01-19T13:37:39.745Z,78.90
2024-01-19T13:38:43.670Z,79.22
2024-01-19T13:39:46.707Z,78.74
2024-01-19T13:40:49.726Z,77.13
2024-01-19T13:41:52.883Z,78.21
2024-01-19T13:42:56.097Z,77.15
2024-01-19T13:44:01.532Z,78.78
2024-01-19T13:45:09.875Z,75.93
2024-01-19T13:46:15.479Z,75.88
2024-01-19T13:47:18.738Z,78.01
2024-01-19T13:48:24.244Z,78.18
2024-01-19T13:49:30.472Z,76.82
2024-01-19T13:50:33.695Z,74.54